sensor_id;sensor_type;location;lat;lon;timestamp;pressure;altitude;pressure_sealevel;temperature;humidity
73600;BME280;61877;48.246;9.220;2023-11-21T00:00:32;93557.16;;;5.35;100.00
73600;BME280;61877;48.246;9.220;2023-11-21T00:02:57;93557.50;;;5.34;100.00
73600;BME280;61877;48.246;9.220;2023-11-21T00:05:23;93558.13;;;5.31;100.00
73600;BME280;61877;48.246;9.220;2023-11-21T00:07:49;93555.31;;;5.27;100.00
73600;BME280;61877;48.246;9.220;2023-11-21T00:10:15;93554.34;;;5.32;100.00
73600;BME280;61877;48.246;9.220;2023-11-21T00:12:40;93552.94;;;5.34;100.00
73600;BME280;61877;48.246;9.220;2023-11-21T00:15:07;93547.94;;;5.32;100.00
73600;BME280;61877;48.246;9.220;2023-11-21T00:17:32;93553.41;;;5.36;100.00
73600;BME280;61877;48.246;9.220;2023-11-21T00:19:58;93550.09;;;5.39;100.00
73600;BME280;61877;48.246;9.220;2023-11-21T00:22:23;93564.66;;;5.42;100.00
73600;BME280;61877;48.246;9.220;2023-11-21T00:24:50;93550.72;;;5.45;100.00
73600;BME280;61877;48.246;9.220;2023-11-21T00:27:15;93550.41;;;5.46;100.00
73600;BME280;61877;48.246;9.220;2023-11-21T00:29:41;93550.88;;;5.48;100.00
73600;BME280;61877;48.246;9.220;2023-11-21T00:32:07;93548.22;;;5.48;100.00
73600;BME280;61877;48.246;9.220;2023-11-21T00:34:33;93547.88;;;5.50;100.00
73600;BME280;61877;48.246;9.220;2023-11-21T00:36:58;93552.09;;;5.51;100.00
73600;BME280;61877;48.246;9.220;2023-11-21T00:39:24;93551.34;;;5.50;100.00
73600;BME280;61877;48.246;9.220;2023-11-21T00:41:51;93552.88;;;5.51;100.00
73600;BME280;61877;48.246;9.220;2023-11-21T00:44:17;93547.88;;;5.50;100.00
73600;BME280;61877;48.246;9.220;2023-11-21T00:46:42;93550.53;;;5.50;100.00
73600;BME280;61877;48.246;9.220;2023-11-21T00:49:08;93555.53;;;5.51;100.00
73600;BME280;61877;48.246;9.220;2023-11-21T00:51:33;93554.00;;;5.50;100.00
73600;BME280;61877;48.246;9.220;2023-11-21T00:53:59;93551.78;;;5.52;100.00
73600;BME280;61877;48.246;9.220;2023-11-21T00:56:24;93551.78;;;5.52;100.00
73600;BME280;61877;48.246;9.220;2023-11-21T00:58:51;93548.34;;;5.52;100.00
73600;BME280;61877;48.246;9.220;2023-11-21T01:01:16;93548.03;;;5.53;100.00
73600;BME280;61877;48.246;9.220;2023-11-21T01:03:42;93550.69;;;5.53;100.00
73600;BME280;61877;48.246;9.220;2023-11-21T01:06:08;93554.44;;;5.52;100.00
73600;BME280;61877;48.246;9.220;2023-11-21T01:08:33;93554.44;;;5.52;100.00
73600;BME280;61877;48.246;9.220;2023-11-21T01:10:59;93550.53;;;5.50;100.00
73600;BME280;61877;48.246;9.220;2023-11-21T01:13:24;93553.22;;;5.50;100.00
73600;BME280;61877;48.246;9.220;2023-11-21T01:15:51;93550.69;;;5.53;100.00
73600;BME280;61877;48.246;9.220;2023-11-21T01:18:16;93549.13;;;5.52;100.00
73600;BME280;61877;48.246;9.220;2023-11-21T01:20:45;93546.00;;;5.50;100.00
73600;BME280;61877;48.246;9.220;2023-11-21T01:23:10;93551.66;;;5.49;100.00
73600;BME280;61877;48.246;9.220;2023-11-21T01:25:35;93545.88;;;5.47;100.00
73600;BME280;61877;48.246;9.220;2023-11-21T01:28:01;93548.06;;;5.45;100.00
73600;BME280;61877;48.246;9.220;2023-11-21T01:30:26;93549.16;;;5.44;100.00
73600;BME280;61877;48.246;9.220;2023-11-21T01:32:53;93551.03;;;5.43;100.00
73600;BME280;61877;48.246;9.220;2023-11-21T01:35:18;93546.50;;;5.44;100.00
73600;BME280;61877;48.246;9.220;2023-11-21T01:37:44;93562.47;;;5.44;100.00
73600;BME280;61877;48.246;9.220;2023-11-21T01:40:13;93550.22;;;5.51;100.00
73600;BME280;61877;48.246;9.220;2023-11-21T01:42:38;93546.00;;;5.50;100.00
73600;BME280;61877;48.246;9.220;2023-11-21T01:45:05;93551.97;;;5.47;100.00
73600;BME280;61877;48.246;9.220;2023-11-21T01:47:30;93541.34;;;5.47;100.00
73600;BME280;61877;48.246;9.220;2023-11-21T01:49:58;93546.66;;;5.47;100.00
73600;BME280;61877;48.246;9.220;2023-11-21T01:52:23;93537.28;;;5.41;100.00
73600;BME280;61877;48.246;9.220;2023-11-21T01:54:49;93530.41;;;5.40;100.00
73600;BME280;61877;48.246;9.220;2023-11-21T01:57:15;93532.59;;;5.38;100.00
73600;BME280;61877;48.246;9.220;2023-11-21T01:59:41;93528.56;;;5.32;100.00
73600;BME280;61877;48.246;9.220;2023-11-21T02:02:07;93523.34;;;5.36;100.00
73600;BME280;61877;48.246;9.220;2023-11-21T02:04:33;93523.22;;;5.32;100.00
73600;BME280;61877;48.246;9.220;2023-11-21T02:07:00;93526.50;;;5.29;100.00
73600;BME280;61877;48.246;9.220;2023-11-21T02:09:26;93519.16;;;5.26;100.00
73600;BME280;61877;48.246;9.220;2023-11-21T02:11:52;93528.09;;;5.30;100.00
73600;BME280;61877;48.246;9.220;2023-11-21T02:14:18;93530.44;;;5.32;100.00
73600;BME280;61877;48.246;9.220;2023-11-21T02:16:43;93530.25;;;5.37;100.00
73600;BME280;61877;48.246;9.220;2023-11-21T02:19:10;93528.06;;;5.39;100.00
73600;BME280;61877;48.246;9.220;2023-11-21T02:21:36;93534.13;;;5.39;100.00
73600;BME280;61877;48.246;9.220;2023-11-21T02:24:04;93525.84;;;5.41;100.00
73600;BME280;61877;48.246;9.220;2023-11-21T02:26:29;93525.84;;;5.41;100.00
73600;BME280;61877;48.246;9.220;2023-11-21T02:28:54;93528.66;;;5.44;100.00
73600;BME280;61877;48.246;9.220;2023-11-21T02:31:20;93528.22;;;5.42;100.00
73600;BME280;61877;48.246;9.220;2023-11-21T02:33:45;93528.81;;;5.39;100.00
73600;BME280;61877;48.246;9.220;2023-11-21T02:36:11;93524.94;;;5.37;100.00
73600;BME280;61877;48.246;9.220;2023-11-21T02:38:36;93526.16;;;5.39;100.00
73600;BME280;61877;48.246;9.220;2023-11-21T02:41:03;93517.44;;;5.39;100.00
73600;BME280;61877;48.246;9.220;2023-11-21T02:43:28;93519.28;;;5.38;100.00
73600;BME280;61877;48.246;9.220;2023-11-21T02:45:54;93520.53;;;5.41;100.00
73600;BME280;61877;48.246;9.220;2023-11-21T02:48:21;93514.28;;;5.45;100.00
73600;BME280;61877;48.246;9.220;2023-11-21T02:50:46;93512.84;;;5.48;100.00
73600;BME280;61877;48.246;9.220;2023-11-21T02:53:12;93518.31;;;5.51;100.00
73600;BME280;61877;48.246;9.220;2023-11-21T02:55:37;93512.84;;;5.48;100.00
73600;BME280;61877;48.246;9.220;2023-11-21T02:58:04;93513.63;;;5.48;100.00
73600;BME280;61877;48.246;9.220;2023-11-21T03:00:29;93512.38;;;5.46;100.00
73600;BME280;61877;48.246;9.220;2023-11-21T03:02:56;93516.75;;;5.50;100.00
73600;BME280;61877;48.246;9.220;2023-11-21T03:05:21;93516.13;;;5.53;100.00
73600;BME280;61877;48.246;9.220;2023-11-21T03:07:47;93517.84;;;5.49;100.00
73600;BME280;61877;48.246;9.220;2023-11-21T03:10:12;93515.50;;;5.48;100.00
73600;BME280;61877;48.246;9.220;2023-11-21T03:12:38;93513.47;;;5.45;100.00
73600;BME280;61877;48.246;9.220;2023-11-21T03:15:06;93513.81;;;5.43;100.00
73600;BME280;61877;48.246;9.220;2023-11-21T03:17:32;93518.66;;;5.41;100.00
73600;BME280;61877;48.246;9.220;2023-11-21T03:19:57;93509.13;;;5.40;100.00
73600;BME280;61877;48.246;9.220;2023-11-21T03:22:22;93512.25;;;5.42;100.00
73600;BME280;61877;48.246;9.220;2023-11-21T03:24:48;93515.19;;;5.41;100.00
73600;BME280;61877;48.246;9.220;2023-11-21T03:27:13;93515.84;;;5.38;100.00
73600;BME280;61877;48.246;9.220;2023-11-21T03:29:39;93521.31;;;5.41;100.00
73600;BME280;61877;48.246;9.220;2023-11-21T03:32:06;93516.00;;;5.41;100.00
73600;BME280;61877;48.246;9.220;2023-11-21T03:34:32;93511.78;;;5.40;100.00
73600;BME280;61877;48.246;9.220;2023-11-21T03:36:57;93510.53;;;5.38;100.00
73600;BME280;61877;48.246;9.220;2023-11-21T03:39:23;93511.97;;;5.35;100.00
73600;BME280;61877;48.246;9.220;2023-11-21T03:41:49;93513.03;;;5.34;100.00
73600;BME280;61877;48.246;9.220;2023-11-21T03:44:14;93513.69;;;5.31;100.00
73600;BME280;61877;48.246;9.220;2023-11-21T03:46:40;93514.31;;;5.28;100.00
73600;BME280;61877;48.246;9.220;2023-11-21T03:49:07;93516.03;;;5.24;100.00
73600;BME280;61877;48.246;9.220;2023-11-21T03:51:33;93508.72;;;5.21;100.00
73600;BME280;61877;48.246;9.220;2023-11-21T03:53:58;93513.38;;;5.24;100.00
73600;BME280;61877;48.246;9.220;2023-11-21T03:56:23;93511.84;;;5.23;100.00
73600;BME280;61877;48.246;9.220;2023-11-21T03:58:49;93514.50;;;5.23;100.00
73600;BME280;61877;48.246;9.220;2023-11-21T04:01:20;93512.63;;;5.23;100.00
73600;BME280;61877;48.246;9.220;2023-11-21T04:03:45;93512.31;;;5.25;100.00
73600;BME280;61877;48.246;9.220;2023-11-21T04:06:12;93508.53;;;5.26;100.00
73600;BME280;61877;48.246;9.220;2023-11-21T04:08:38;93509.00;;;5.28;100.00
73600;BME280;61877;48.246;9.220;2023-11-21T04:11:03;93510.56;;;5.29;100.00
73600;BME280;61877;48.246;9.220;2023-11-21T04:13:29;93503.22;;;5.26;100.00
73600;BME280;61877;48.246;9.220;2023-11-21T04:15:54;93494.00;;;5.23;100.00
73600;BME280;61877;48.246;9.220;2023-11-21T04:18:19;93503.25;;;5.17;100.00
73600;BME280;61877;48.246;9.220;2023-11-21T04:20:45;93499.66;;;5.13;100.00
73600;BME280;61877;48.246;9.220;2023-11-21T04:23:12;93511.69;;;5.11;100.00
73600;BME280;61877;48.246;9.220;2023-11-21T04:25:37;93517.66;;;5.08;100.00
73600;BME280;61877;48.246;9.220;2023-11-21T04:28:03;93522.66;;;5.09;100.00
73600;BME280;61877;48.246;9.220;2023-11-21T04:30:28;93523.44;;;5.10;100.00
73600;BME280;61877;48.246;9.220;2023-11-21T04:32:53;93518.59;;;5.12;100.00
73600;BME280;61877;48.246;9.220;2023-11-21T04:35:19;93528.91;;;5.13;100.00
73600;BME280;61877;48.246;9.220;2023-11-21T04:37:44;93528.75;;;5.18;100.00
73600;BME280;61877;48.246;9.220;2023-11-21T04:40:11;93516.69;;;5.21;100.00
73600;BME280;61877;48.246;9.220;2023-11-21T04:42:37;93523.56;;;5.22;100.00
73600;BME280;61877;48.246;9.220;2023-11-21T04:45:03;93519.34;;;5.21;100.00
73600;BME280;61877;48.246;9.220;2023-11-21T04:47:28;93518.88;;;5.19;100.00
73600;BME280;61877;48.246;9.220;2023-11-21T04:49:54;93528.44;;;5.20;100.00
73600;BME280;61877;48.246;9.220;2023-11-21T04:52:19;93526.22;;;5.22;100.00
73600;BME280;61877;48.246;9.220;2023-11-21T04:54:45;93532.94;;;5.19;100.00
73600;BME280;61877;48.246;9.220;2023-11-21T04:57:11;93538.13;;;5.16;100.00
73600;BME280;61877;48.246;9.220;2023-11-21T04:59:37;93530.78;;;5.13;100.00
73600;BME280;61877;48.246;9.220;2023-11-21T05:02:02;93539.41;;;5.10;100.00
73600;BME280;61877;48.246;9.220;2023-11-21T05:04:28;93536.75;;;5.10;100.00
73600;BME280;61877;48.246;9.220;2023-11-21T05:06:53;93543.16;;;5.09;100.00
73600;BME280;61877;48.246;9.220;2023-11-21T05:09:19;93540.50;;;5.09;100.00
73600;BME280;61877;48.246;9.220;2023-11-21T05:11:44;93542.06;;;5.10;100.00
73600;BME280;61877;48.246;9.220;2023-11-21T05:14:11;93541.41;;;5.13;100.00
73600;BME280;61877;48.246;9.220;2023-11-21T05:16:36;93538.13;;;5.16;100.00
73600;BME280;61877;48.246;9.220;2023-11-21T05:19:02;93537.03;;;5.17;100.00
73600;BME280;61877;48.246;9.220;2023-11-21T05:21:28;93542.34;;;5.17;100.00
73600;BME280;61877;48.246;9.220;2023-11-21T05:23:53;93543.44;;;5.16;100.00
73600;BME280;61877;48.246;9.220;2023-11-21T05:26:19;93536.56;;;5.15;100.00
73600;BME280;61877;48.246;9.220;2023-11-21T05:28:44;93536.25;;;5.08;100.00
73600;BME280;61877;48.246;9.220;2023-11-21T05:31:11;93535.97;;;5.01;100.00
73600;BME280;61877;48.246;9.220;2023-11-21T05:33:36;93535.53;;;4.90;100.00
73600;BME280;61877;48.246;9.220;2023-11-21T05:36:02;93541.00;;;4.85;100.00
73600;BME280;61877;48.246;9.220;2023-11-21T05:38:28;93544.59;;;4.81;100.00
73600;BME280;61877;48.246;9.220;2023-11-21T05:40:53;93537.72;;;4.80;100.00
73600;BME280;61877;48.246;9.220;2023-11-21T05:43:18;93546.78;;;4.79;100.00
73600;BME280;61877;48.246;9.220;2023-11-21T05:45:44;93544.91;;;4.79;100.00
73600;BME280;61877;48.246;9.220;2023-11-21T05:48:11;93549.13;;;4.80;100.00
73600;BME280;61877;48.246;9.220;2023-11-21T05:50:36;93555.22;;;4.81;100.00
73600;BME280;61877;48.246;9.220;2023-11-21T05:53:02;93548.19;;;4.85;100.00
73600;BME280;61877;48.246;9.220;2023-11-21T05:55:27;93547.06;;;4.86;100.00
73600;BME280;61877;48.246;9.220;2023-11-21T05:57:53;93552.88;;;4.88;100.00
73600;BME280;61877;48.246;9.220;2023-11-21T06:00:18;93557.53;;;4.91;100.00
73600;BME280;61877;48.246;9.220;2023-11-21T06:02:43;93558.03;;;4.93;100.00
73600;BME280;61877;48.246;9.220;2023-11-21T06:05:10;93558.81;;;4.93;100.00
73600;BME280;61877;48.246;9.220;2023-11-21T06:07:37;93566.94;;;4.97;100.00
73600;BME280;61877;48.246;9.220;2023-11-21T06:10:03;93566.31;;;5.00;100.00
73600;BME280;61877;48.246;9.220;2023-11-21T06:12:28;93562.09;;;4.99;100.00
73600;BME280;61877;48.246;9.220;2023-11-21T06:14:54;93571.00;;;5.03;100.00
73600;BME280;61877;48.246;9.220;2023-11-21T06:17:19;93573.66;;;5.03;100.00
73600;BME280;61877;48.246;9.220;2023-11-21T06:19:45;93579.44;;;5.05;100.00
73600;BME280;61877;48.246;9.220;2023-11-21T06:22:11;93580.97;;;5.06;100.00
73600;BME280;61877;48.246;9.220;2023-11-21T06:24:37;93584.59;;;5.10;100.00
73600;BME280;61877;48.246;9.220;2023-11-21T06:27:03;93586.13;;;5.11;100.00
73600;BME280;61877;48.246;9.220;2023-11-21T06:29:29;93588.47;;;5.12;100.00
73600;BME280;61877;48.246;9.220;2023-11-21T06:31:54;93600.69;;;5.13;100.00
73600;BME280;61877;48.246;9.220;2023-11-21T06:34:19;93593.31;;;5.19;100.00
73600;BME280;61877;48.246;9.220;2023-11-21T06:36:45;93595.22;;;5.18;100.00
73600;BME280;61877;48.246;9.220;2023-11-21T06:39:14;93593.19;;;5.15;100.00
73600;BME280;61877;48.246;9.220;2023-11-21T06:41:39;93603.03;;;5.15;100.00
73600;BME280;61877;48.246;9.220;2023-11-21T06:44:05;93602.25;;;5.14;100.00
73600;BME280;61877;48.246;9.220;2023-11-21T06:46:30;93605.38;;;5.16;100.00
73600;BME280;61877;48.246;9.220;2023-11-21T06:48:56;93607.88;;;5.21;100.00
73600;BME280;61877;48.246;9.220;2023-11-21T06:51:21;93613.19;;;5.21;100.00
73600;BME280;61877;48.246;9.220;2023-11-21T06:53:46;93617.09;;;5.24;100.00
73600;BME280;61877;48.246;9.220;2023-11-21T06:56:17;93618.50;;;5.30;100.00
73600;BME280;61877;48.246;9.220;2023-11-21T06:58:42;93621.94;;;5.31;100.00
73600;BME280;61877;48.246;9.220;2023-11-21T07:01:08;93626.16;;;5.32;100.00
73600;BME280;61877;48.246;9.220;2023-11-21T07:03:33;93621.00;;;5.35;100.00
73600;BME280;61877;48.246;9.220;2023-11-21T07:05:59;93620.34;;;5.38;100.00
73600;BME280;61877;48.246;9.220;2023-11-21T07:08:24;93630.38;;;5.41;100.00
73600;BME280;61877;48.246;9.220;2023-11-21T07:10:50;93625.53;;;5.43;100.00
73600;BME280;61877;48.246;9.220;2023-11-21T07:13:17;93628.00;;;5.48;100.00
73600;BME280;61877;48.246;9.220;2023-11-21T07:15:42;93632.69;;;5.51;100.00
73600;BME280;61877;48.246;9.220;2023-11-21T07:18:10;93640.34;;;5.53;100.00
73600;BME280;61877;48.246;9.220;2023-11-21T07:20:35;93634.88;;;5.58;100.00
73600;BME280;61877;48.246;9.220;2023-11-21T07:23:01;93637.22;;;5.59;100.00
73600;BME280;61877;48.246;9.220;2023-11-21T07:25:26;93640.47;;;5.73;100.00
73600;BME280;61877;48.246;9.220;2023-11-21T07:27:52;93644.22;;;5.72;100.00
73600;BME280;61877;48.246;9.220;2023-11-21T07:30:18;93646.28;;;5.75;100.00
73600;BME280;61877;48.246;9.220;2023-11-21T07:32:44;93635.63;;;5.75;100.00
73600;BME280;61877;48.246;9.220;2023-11-21T07:35:09;93633.25;;;5.82;100.00
73600;BME280;61877;48.246;9.220;2023-11-21T07:37:35;93639.34;;;5.91;100.00
73600;BME280;61877;48.246;9.220;2023-11-21T07:40:00;93634.47;;;6.02;100.00
73600;BME280;61877;48.246;9.220;2023-11-21T07:42:26;93636.47;;;6.05;100.00
73600;BME280;61877;48.246;9.220;2023-11-21T07:44:51;93634.50;;;6.22;100.00
73600;BME280;61877;48.246;9.220;2023-11-21T07:47:18;93645.28;;;6.34;100.00
73600;BME280;61877;48.246;9.220;2023-11-21T07:49:43;93643.22;;;6.40;100.00
73600;BME280;61877;48.246;9.220;2023-11-21T07:52:09;93648.53;;;6.40;100.00
73600;BME280;61877;48.246;9.220;2023-11-21T07:54:35;93651.50;;;6.38;100.00
73600;BME280;61877;48.246;9.220;2023-11-21T07:57:00;93646.66;;;6.40;100.00
73600;BME280;61877;48.246;9.220;2023-11-21T07:59:26;93651.69;;;6.33;100.00
73600;BME280;61877;48.246;9.220;2023-11-21T08:01:51;93654.16;;;6.38;100.00
73600;BME280;61877;48.246;9.220;2023-11-21T08:04:18;93654.78;;;6.44;100.00
73600;BME280;61877;48.246;9.220;2023-11-21T08:06:43;93657.59;;;6.47;100.00
73600;BME280;61877;48.246;9.220;2023-11-21T08:09:08;93654.22;;;6.59;100.00
73600;BME280;61877;48.246;9.220;2023-11-21T08:11:34;93658.41;;;6.69;100.00
73600;BME280;61877;48.246;9.220;2023-11-21T08:13:59;93656.00;;;6.76;100.00
73600;BME280;61877;48.246;9.220;2023-11-21T08:16:25;93666.75;;;6.58;100.00
73600;BME280;61877;48.246;9.220;2023-11-21T08:18:50;93662.13;;;6.76;100.00
73600;BME280;61877;48.246;9.220;2023-11-21T08:21:17;93659.13;;;6.78;100.00
73600;BME280;61877;48.246;9.220;2023-11-21T08:23:43;93661.81;;;6.78;100.00
73600;BME280;61877;48.246;9.220;2023-11-21T08:26:08;93660.97;;;6.86;100.00
73600;BME280;61877;48.246;9.220;2023-11-21T08:28:33;93663.13;;;6.92;100.00
73600;BME280;61877;48.246;9.220;2023-11-21T08:31:00;93665.84;;;7.04;100.00
73600;BME280;61877;48.246;9.220;2023-11-21T08:33:25;93662.28;;;7.21;100.00
73600;BME280;61877;48.246;9.220;2023-11-21T08:35:51;93661.81;;;7.39;100.00
73600;BME280;61877;48.246;9.220;2023-11-21T08:38:18;93660.47;;;7.66;100.00
73600;BME280;61877;48.246;9.220;2023-11-21T08:40:43;93667.41;;;7.91;100.00
73600;BME280;61877;48.246;9.220;2023-11-21T08:43:10;93665.00;;;7.98;100.00
73600;BME280;61877;48.246;9.220;2023-11-21T08:45:36;93668.53;;;7.90;100.00
73600;BME280;61877;48.246;9.220;2023-11-21T08:48:01;93664.28;;;7.77;100.00
73600;BME280;61877;48.246;9.220;2023-11-21T08:50:27;93676.28;;;7.71;100.00
73600;BME280;61877;48.246;9.220;2023-11-21T08:52:52;93672.88;;;7.82;100.00
73600;BME280;61877;48.246;9.220;2023-11-21T08:55:19;93666.75;;;7.82;100.00
73600;BME280;61877;48.246;9.220;2023-11-21T08:57:45;93674.75;;;7.82;100.00
73600;BME280;61877;48.246;9.220;2023-11-21T09:00:11;93671.16;;;7.78;100.00
73600;BME280;61877;48.246;9.220;2023-11-21T09:02:37;93671.25;;;7.69;100.00
73600;BME280;61877;48.246;9.220;2023-11-21T09:05:06;93668.78;;;7.64;100.00
73600;BME280;61877;48.246;9.220;2023-11-21T09:07:31;93678.00;;;7.55;100.00
73600;BME280;61877;48.246;9.220;2023-11-21T09:09:59;93679.56;;;7.56;100.00
73600;BME280;61877;48.246;9.220;2023-11-21T09:12:26;93692.13;;;7.55;100.00
73600;BME280;61877;48.246;9.220;2023-11-21T09:14:51;93690.94;;;7.65;100.00
73600;BME280;61877;48.246;9.220;2023-11-21T09:17:20;93689.97;;;7.81;100.00
73600;BME280;61877;48.246;9.220;2023-11-21T09:19:45;93684.31;;;7.83;100.00
73600;BME280;61877;48.246;9.220;2023-11-21T09:22:11;93686.09;;;7.79;100.00
73600;BME280;61877;48.246;9.220;2023-11-21T09:24:36;93694.47;;;7.89;100.00
73600;BME280;61877;48.246;9.220;2023-11-21T09:27:02;93695.91;;;7.87;100.00
73600;BME280;61877;48.246;9.220;2023-11-21T09:29:29;93693.19;;;7.75;100.00
73600;BME280;61877;48.246;9.220;2023-11-21T09:31:54;93688.06;;;7.70;100.00
73600;BME280;61877;48.246;9.220;2023-11-21T09:34:20;93686.50;;;7.69;100.00
73600;BME280;61877;48.246;9.220;2023-11-21T09:36:46;93688.50;;;7.72;100.00
73600;BME280;61877;48.246;9.220;2023-11-21T09:39:12;93699.00;;;7.77;100.00
73600;BME280;61877;48.246;9.220;2023-11-21T09:41:43;93698.38;;;7.92;100.00
73600;BME280;61877;48.246;9.220;2023-11-21T09:44:11;93698.41;;;8.04;100.00
73600;BME280;61877;48.246;9.220;2023-11-21T09:46:40;93701.41;;;8.35;100.00
73600;BME280;61877;48.246;9.220;2023-11-21T09:49:08;93697.09;;;9.43;98.49
73600;BME280;61877;48.246;9.220;2023-11-21T09:51:35;93691.63;;;10.22;92.49
73600;BME280;61877;48.246;9.220;2023-11-21T09:54:03;93701.44;;;10.46;90.74
73600;BME280;61877;48.246;9.220;2023-11-21T09:56:28;93694.22;;;11.12;84.33
73600;BME280;61877;48.246;9.220;2023-11-21T09:58:54;93696.50;;;10.94;86.21
73600;BME280;61877;48.246;9.220;2023-11-21T10:01:20;93696.91;;;10.18;87.46
73600;BME280;61877;48.246;9.220;2023-11-21T10:03:48;93689.22;;;9.89;90.23
73600;BME280;61877;48.246;9.220;2023-11-21T10:06:13;93692.53;;;9.71;92.42
73600;BME280;61877;48.246;9.220;2023-11-21T10:08:41;93690.19;;;9.42;94.62
73600;BME280;61877;48.246;9.220;2023-11-21T10:11:08;93704.50;;;9.22;91.78
73600;BME280;61877;48.246;9.220;2023-11-21T10:13:36;93700.22;;;9.33;92.79
73600;BME280;61877;48.246;9.220;2023-11-21T10:16:02;93705.13;;;9.31;90.77
73600;BME280;61877;48.246;9.220;2023-11-21T10:18:31;93705.50;;;9.17;91.31
73600;BME280;61877;48.246;9.220;2023-11-21T10:20:58;93706.63;;;9.04;94.75
73600;BME280;61877;48.246;9.220;2023-11-21T10:23:24;93711.00;;;8.84;92.91
73600;BME280;61877;48.246;9.220;2023-11-21T10:25:50;93709.63;;;9.02;91.48
73600;BME280;61877;48.246;9.220;2023-11-21T10:28:15;93707.63;;;9.11;92.63
73600;BME280;61877;48.246;9.220;2023-11-21T10:30:41;93705.09;;;8.91;86.47
73600;BME280;61877;48.246;9.220;2023-11-21T10:33:07;93710.13;;;8.80;86.52
73600;BME280;61877;48.246;9.220;2023-11-21T10:35:48;93705.97;;;8.83;88.18
73600;BME280;61877;48.246;9.220;2023-11-21T10:38:15;93700.28;;;8.84;84.43
73600;BME280;61877;48.246;9.220;2023-11-21T10:40:53;93708.75;;;8.74;85.18
73600;BME280;61877;48.246;9.220;2023-11-21T10:43:18;93700.75;;;8.74;85.47
73600;BME280;61877;48.246;9.220;2023-11-21T10:45:44;93705.63;;;8.72;84.53
73600;BME280;61877;48.246;9.220;2023-11-21T10:48:10;93712.31;;;8.90;86.35
73600;BME280;61877;48.246;9.220;2023-11-21T10:50:37;93714.34;;;8.93;89.79
73600;BME280;61877;48.246;9.220;2023-11-21T10:53:03;93713.75;;;9.12;89.62
73600;BME280;61877;48.246;9.220;2023-11-21T10:55:31;93707.19;;;9.22;90.02
73600;BME280;61877;48.246;9.220;2023-11-21T10:57:58;93700.38;;;9.12;88.52
73600;BME280;61877;48.246;9.220;2023-11-21T11:00:24;93701.16;;;9.25;86.38
73600;BME280;61877;48.246;9.220;2023-11-21T11:02:52;93700.47;;;9.28;84.27
73600;BME280;61877;48.246;9.220;2023-11-21T11:05:20;93704.41;;;9.06;86.75
73600;BME280;61877;48.246;9.220;2023-11-21T11:07:48;93702.06;;;9.17;89.35
73600;BME280;61877;48.246;9.220;2023-11-21T11:10:15;93702.69;;;9.26;86.09
73600;BME280;61877;48.246;9.220;2023-11-21T11:12:42;93702.88;;;9.45;89.84
73600;BME280;61877;48.246;9.220;2023-11-21T11:15:11;93709.81;;;9.73;88.43
73600;BME280;61877;48.246;9.220;2023-11-21T11:20:46;93702.81;;;10.86;77.73
73600;BME280;61877;48.246;9.220;2023-11-21T11:23:29;93701.00;;;10.90;76.40
73600;BME280;61877;48.246;9.220;2023-11-21T11:26:07;93701.00;;;11.06;74.88
73600;BME280;61877;48.246;9.220;2023-11-21T11:28:44;93695.13;;;10.69;76.74
73600;BME280;61877;48.246;9.220;2023-11-21T11:31:19;93700.66;;;10.45;78.20
73600;BME280;61877;48.246;9.220;2023-11-21T11:33:54;93705.19;;;9.86;79.14
73600;BME280;61877;48.246;9.220;2023-11-21T11:36:25;93699.63;;;9.51;82.03
73600;BME280;61877;48.246;9.220;2023-11-21T11:38:52;93696.75;;;9.44;82.29
73600;BME280;61877;48.246;9.220;2023-11-21T11:41:25;93698.28;;;9.45;85.88
73600;BME280;61877;48.246;9.220;2023-11-21T11:43:52;93705.22;;;9.46;86.44
73600;BME280;61877;48.246;9.220;2023-11-21T11:46:17;93708.28;;;9.60;83.96
73600;BME280;61877;48.246;9.220;2023-11-21T11:48:43;93708.63;;;9.59;84.61
73600;BME280;61877;48.246;9.220;2023-11-21T11:51:11;93709.41;;;9.87;83.50
73600;BME280;61877;48.246;9.220;2023-11-21T11:53:37;93708.34;;;9.76;82.61
73600;BME280;61877;48.246;9.220;2023-11-21T11:56:22;93714.44;;;9.88;82.09
73600;BME280;61877;48.246;9.220;2023-11-21T11:58:48;93707.31;;;9.80;82.23
73600;BME280;61877;48.246;9.220;2023-11-21T12:01:16;93708.56;;;9.83;80.82
73600;BME280;61877;48.246;9.220;2023-11-21T12:03:42;93708.28;;;9.60;82.74
73600;BME280;61877;48.246;9.220;2023-11-21T12:06:08;93708.72;;;9.62;84.67
73600;BME280;61877;48.246;9.220;2023-11-21T12:08:34;93710.22;;;9.60;89.17
73600;BME280;61877;48.246;9.220;2023-11-21T12:11:01;93710.00;;;9.53;89.16
73600;BME280;61877;48.246;9.220;2023-11-21T12:13:28;93703.28;;;9.59;85.90
73600;BME280;61877;48.246;9.220;2023-11-21T12:15:53;93704.44;;;9.46;86.39
73600;BME280;61877;48.246;9.220;2023-11-21T12:18:20;93708.94;;;9.18;88.63
73600;BME280;61877;48.246;9.220;2023-11-21T12:20:46;93707.41;;;9.04;92.31
73600;BME280;61877;48.246;9.220;2023-11-21T12:23:11;93713.19;;;9.18;95.54
73600;BME280;61877;48.246;9.220;2023-11-21T12:25:37;93713.63;;;9.33;92.58
73600;BME280;61877;48.246;9.220;2023-11-21T12:28:03;93719.91;;;9.52;92.03
73600;BME280;61877;48.246;9.220;2023-11-21T12:30:29;93718.47;;;9.55;92.25
73600;BME280;61877;48.246;9.220;2023-11-21T12:32:55;93718.47;;;9.55;90.54
73600;BME280;61877;48.246;9.220;2023-11-21T12:35:25;93714.44;;;9.61;89.05
73600;BME280;61877;48.246;9.220;2023-11-21T12:37:52;93713.81;;;9.52;90.33
73600;BME280;61877;48.246;9.220;2023-11-21T12:40:17;93716.31;;;9.60;90.26
73600;BME280;61877;48.246;9.220;2023-11-21T12:42:44;93718.16;;;9.84;88.21
73600;BME280;61877;48.246;9.220;2023-11-21T12:45:18;93718.09;;;9.96;86.42
73600;BME280;61877;48.246;9.220;2023-11-21T12:47:44;93723.22;;;10.28;87.91
73600;BME280;61877;48.246;9.220;2023-11-21T12:50:10;93724.59;;;10.22;87.43
73600;BME280;61877;48.246;9.220;2023-11-21T12:52:37;93724.41;;;10.15;87.35
73600;BME280;61877;48.246;9.220;2023-11-21T12:55:03;93726.63;;;10.13;87.30
73600;BME280;61877;48.246;9.220;2023-11-21T12:57:29;93732.81;;;10.02;86.79
73600;BME280;61877;48.246;9.220;2023-11-21T12:59:57;93730.84;;;9.87;89.26